Time;durP1;ratioP1;P1;durP2;ratioP2;P2;SDS_P1;SDS_P2;PMS_P1;PMS_P2;Temp;Humidity;BMP_temperature;BMP_pressure;BME280_temperature;BME280_humidity;BME280_pressure;Samples;Min_cycle;Max_cycle;Signal;HPM_P1;HPM_P2
2023/04/09 00:00:09;;;;;;;;;;;;;;;10.62;100.00;99940.53;4939107;28;19922;-47
2023/04/09 00:02:34;;;;;;;;;;;;;;;10.09;100.00;99896.72;4939875;28;19926;-47
2023/04/09 00:05:00;;;;;;;;;;;;;;;10.15;100.00;99918.94;4939887;28;20425;-47
2023/04/09 00:07:25;;;;;;;;;;;;;;;10.34;100.00;99907.50;4936690;28;20068;-47
2023/04/09 00:09:50;;;;;;;;;;;;;;;10.21;100.00;99890.53;4936665;28;19976;-48
2023/04/09 00:12:16;;;;;;;;;;;;;;;9.79;100.00;99904.03;4937877;28;19975;-47
2023/04/09 00:14:41;;;;;;;;;;;;;;;10.11;100.00;99910.44;4938324;28;19930;-47
2023/04/09 00:17:06;;;;;;;;;;;;;;;10.07;100.00;99913.91;4939176;28;19941;-47
2023/04/09 00:19:32;;;;;;;;;;;;;;;10.14;100.00;99897.50;4936919;28;19953;-47
2023/04/09 00:21:57;;;;;;;;;;;;;;;9.52;100.00;99910.41;4937514;28;19930;-47
2023/04/09 00:24:22;;;;;;;;;;;;;;;8.94;100.00;99944.47;4939123;28;19933;-49
2023/04/09 00:26:48;;;;;;;;;;;;;;;9.02;100.00;99982.97;4936115;28;19922;-48
2023/04/09 00:29:13;;;;;;;;;;;;;;;9.02;100.00;99988.94;4939437;28;19978;-48
2023/04/09 00:31:38;;;;;;;;;;;;;;;9.28;100.00;99992.97;4936379;28;20054;-47
2023/04/09 00:34:04;;;;;;;;;;;;;;;9.34;100.00;99998.03;4939108;28;19918;-49
2023/04/09 00:36:30;;;;;;;;;;;;;;;9.18;100.00;100000.75;4937160;28;19973;-47
2023/04/09 00:38:55;;;;;;;;;;;;;;;9.68;100.00;100008.78;4937877;28;19929;-47
2023/04/09 00:41:20;;;;;;;;;;;;;;;9.75;100.00;99988.97;4936091;28;19926;-47
2023/04/09 00:43:46;;;;;;;;;;;;;;;9.72;100.00;99978.75;4936888;28;19926;-47
2023/04/09 00:46:11;;;;;;;;;;;;;;;10.08;100.00;99981.66;4937947;28;19918;-47
2023/04/09 00:48:36;;;;;;;;;;;;;;;10.29;100.00;99954.81;4937394;28;19929;-48
2023/04/09 00:51:01;;;;;;;;;;;;;;;9.83;100.00;99946.00;4939426;28;19922;-48
2023/04/09 00:53:26;;;;;;;;;;;;;;;9.75;100.00;99943.53;4930400;28;19918;-48
2023/04/09 00:55:52;;;;;;;;;;;;;;;9.81;100.00;99947.75;4938645;28;19927;-47
2023/04/09 00:58:17;;;;;;;;;;;;;;;9.79;100.00;99940.06;4935928;28;19933;-47
2023/04/09 01:00:43;;;;;;;;;;;;;;;9.79;100.00;99934.91;4938976;28;21628;-46
2023/04/09 01:03:08;;;;;;;;;;;;;;;9.86;100.00;99925.38;4941064;28;19927;-47
2023/04/09 01:05:37;;;;;;;;;;;;;;;10.31;100.00;99899.84;4941671;28;19932;-49
2023/04/09 01:08:05;;;;;;;;;;;;;;;10.46;100.00;99871.25;4938314;28;19914;-47
2023/04/09 01:10:35;;;;;;;;;;;;;;;9.72;100.00;99861.28;4941511;28;19982;-47
2023/04/09 01:13:09;;;;;;;;;;;;;;;8.68;100.00;99889.09;4956672;28;19949;-47
2023/04/09 01:15:40;;;;;;;;;;;;;;;9.24;100.00;99904.78;4944217;28;19918;-49
2023/04/09 01:18:06;;;;;;;;;;;;;;;9.71;100.00;99928.16;4941196;28;19923;-47
2023/04/09 01:20:34;;;;;;;;;;;;;;;10.58;100.00;99882.22;4940783;28;20051;-47
2023/04/09 01:23:02;;;;;;;;;;;;;;;10.86;100.00;99838.75;4939580;28;19958;-47
2023/04/09 01:25:33;;;;;;;;;;;;;;;10.85;100.00;99799.22;4939463;28;20000;-46
2023/04/09 01:28:15;;;;;;;;;;;;;;;10.79;100.00;99777.94;4941502;28;19923;-50
2023/04/09 01:30:40;;;;;;;;;;;;;;;10.92;100.00;99763.88;4938707;28;20368;-46
2023/04/09 01:33:05;;;;;;;;;;;;;;;10.88;100.00;99747.66;4940713;28;19919;-46
2023/04/09 01:35:31;;;;;;;;;;;;;;;10.84;100.00;99752.91;4937810;28;19926;-46
2023/04/09 01:37:56;;;;;;;;;;;;;;;10.09;100.00;99762.06;4939716;28;19926;-47
2023/04/09 01:40:21;;;;;;;;;;;;;;;9.63;100.00;99779.94;4955231;28;19931;-46
2023/04/09 01:42:46;;;;;;;;;;;;;;;9.88;100.00;99787.28;4938782;28;19922;-46
2023/04/09 01:45:12;;;;;;;;;;;;;;;9.66;100.00;99824.50;4954481;28;19961;-46
2023/04/09 01:47:37;;;;;;;;;;;;;;;9.20;100.00;99800.31;4939304;28;20044;-48
2023/04/09 01:50:03;;;;;;;;;;;;;;;10.16;100.00;99815.13;4955679;28;19919;-47
2023/04/09 01:52:28;;;;;;;;;;;;;;;9.65;100.00;99828.81;4941509;28;19919;-48
2023/04/09 01:54:53;;;;;;;;;;;;;;;9.77;100.00;99851.75;4939947;28;20130;-48
2023/04/09 01:57:18;;;;;;;;;;;;;;;10.34;100.00;99814.81;4934558;28;20168;-48
2023/04/09 01:59:44;;;;;;;;;;;;;;;10.23;100.00;99796.13;4938298;28;19926;-46
2023/04/09 02:02:11;;;;;;;;;;;;;;;10.00;100.00;99779.34;4933914;28;19976;-47
2023/04/09 02:04:38;;;;;;;;;;;;;;;10.33;100.00;99774.53;4935147;28;19922;-48
2023/04/09 02:07:03;;;;;;;;;;;;;;;10.48;100.00;99754.50;4952238;28;21323;-48
2023/04/09 02:09:28;;;;;;;;;;;;;;;10.42;100.00;99740.88;4936936;28;21093;-47
2023/04/09 02:11:54;;;;;;;;;;;;;;;10.53;100.00;99725.19;4934040;28;19953;-47
2023/04/09 02:14:20;;;;;;;;;;;;;;;10.27;100.00;99720.53;4936447;28;19926;-46
2023/04/09 02:16:45;;;;;;;;;;;;;;;10.54;100.00;99723.47;4934538;28;19933;-47
2023/04/09 02:19:10;;;;;;;;;;;;;;;10.44;100.00;99718.50;4939276;28;19978;-47
2023/04/09 02:21:36;;;;;;;;;;;;;;;9.63;100.00;99738.81;4937808;28;20302;-47
2023/04/09 02:24:01;;;;;;;;;;;;;;;10.15;100.00;99728.47;4937844;28;19980;-46
2023/04/09 02:26:26;;;;;;;;;;;;;;;10.19;100.00;99727.53;4933603;28;19988;-49
2023/04/09 02:28:51;;;;;;;;;;;;;;;9.74;100.00;99725.78;4937710;28;19925;-47
2023/04/09 02:31:17;;;;;;;;;;;;;;;9.75;100.00;99731.75;4940683;28;19957;-48
2023/04/09 02:33:42;;;;;;;;;;;;;;;9.74;100.00;99724.91;4938642;28;20008;-48
2023/04/09 02:36:11;;;;;;;;;;;;;;;9.99;100.00;99735.63;4939089;28;20064;-47
2023/04/09 02:38:36;;;;;;;;;;;;;;;9.87;100.00;99726.41;4935875;28;20084;-47
2023/04/09 02:41:02;;;;;;;;;;;;;;;10.34;100.00;99718.72;4937892;28;20640;-47
2023/04/09 02:43:27;;;;;;;;;;;;;;;10.17;100.00;99712.16;4938850;28;20370;-49
2023/04/09 02:45:52;;;;;;;;;;;;;;;10.08;100.00;99720.03;4939136;28;19929;-47
2023/04/09 02:48:17;;;;;;;;;;;;;;;9.86;100.00;99717.00;4936615;28;20001;-48
2023/04/09 02:50:42;;;;;;;;;;;;;;;10.08;100.00;99712.31;4937258;28;20012;-47
2023/04/09 02:53:08;;;;;;;;;;;;;;;9.85;100.00;99712.72;4938091;28;19932;-47
2023/04/09 02:55:33;;;;;;;;;;;;;;;9.93;100.00;99715.16;4937350;28;20129;-47
2023/04/09 02:57:58;;;;;;;;;;;;;;;9.31;100.00;99735.91;4935384;28;19926;-47
2023/04/09 03:00:23;;;;;;;;;;;;;;;10.01;100.00;99721.88;4937518;28;20028;-48
2023/04/09 03:02:48;;;;;;;;;;;;;;;10.00;100.00;99712.44;4937490;28;20544;-46
2023/04/09 03:05:14;;;;;;;;;;;;;;;10.05;100.00;99704.63;4934883;28;20418;-48
2023/04/09 03:07:39;;;;;;;;;;;;;;;9.80;100.00;99706.81;4935814;28;20387;-47
2023/04/09 03:10:04;;;;;;;;;;;;;;;9.74;100.00;99699.19;4936645;28;19926;-48
2023/04/09 03:12:30;;;;;;;;;;;;;;;9.14;100.00;99706.13;4937047;28;19926;-46
2023/04/09 03:14:55;;;;;;;;;;;;;;;7.70;100.00;99742.00;4937323;28;19933;-47
2023/04/09 03:17:20;;;;;;;;;;;;;;;8.85;100.00;99765.66;4935781;28;19918;-50
2023/04/09 03:19:45;;;;;;;;;;;;;;;9.53;100.00;99747.53;4936768;28;19953;-47
2023/04/09 03:22:11;;;;;;;;;;;;;;;9.44;100.00;99732.25;4935096;28;20605;-46
2023/04/09 03:24:36;;;;;;;;;;;;;;;9.34;100.00;99726.41;4936088;28;20458;-47
2023/04/09 03:27:01;;;;;;;;;;;;;;;9.56;100.00;99726.94;4933925;28;19965;-47
2023/04/09 03:29:26;;;;;;;;;;;;;;;9.02;100.00;99744.88;4936939;28;19926;-47
2023/04/09 03:31:51;;;;;;;;;;;;;;;9.74;100.00;99730.03;4932658;28;19922;-47
2023/04/09 03:34:17;;;;;;;;;;;;;;;9.78;100.00;99711.13;4936925;28;19948;-48
2023/04/09 03:36:42;;;;;;;;;;;;;;;9.86;100.00;99693.84;4935048;28;19927;-47
2023/04/09 03:39:07;;;;;;;;;;;;;;;9.92;100.00;99682.56;4935288;28;19941;-47
2023/04/09 03:41:32;;;;;;;;;;;;;;;9.73;100.00;99679.50;4936189;28;19930;-47
2023/04/09 03:43:57;;;;;;;;;;;;;;;9.73;100.00;99671.78;4937224;28;20205;-47
2023/04/09 03:46:23;;;;;;;;;;;;;;;9.71;100.00;99669.22;4936952;28;19992;-48
2023/04/09 03:48:49;;;;;;;;;;;;;;;9.57;100.00;99660.91;4935332;28;19926;-47
2023/04/09 03:51:14;;;;;;;;;;;;;;;9.41;100.00;99668.03;4936730;28;19922;-47
2023/04/09 03:53:40;;;;;;;;;;;;;;;9.33;100.00;99677.63;4936331;28;19926;-46
2023/04/09 03:56:06;;;;;;;;;;;;;;;9.08;100.00;99703.69;4936605;28;20743;-47
2023/04/09 03:58:31;;;;;;;;;;;;;;;8.74;100.00;99718.72;4936692;28;19922;-47
2023/04/09 04:00:56;;;;;;;;;;;;;;;8.38;100.00;99742.19;4930650;28;20330;-46
2023/04/09 04:03:21;;;;;;;;;;;;;;;8.67;100.00;99741.03;4937016;28;19961;-46
2023/04/09 04:05:47;;;;;;;;;;;;;;;9.25;100.00;99726.53;4936042;28;20060;-46
2023/04/09 04:08:12;;;;;;;;;;;;;;;9.48;100.00;99726.19;4933176;28;20038;-47
2023/04/09 04:10:37;;;;;;;;;;;;;;;9.70;100.00;99713.00;4936144;28;20029;-47
2023/04/09 04:13:02;;;;;;;;;;;;;;;9.98;100.00;99688.47;4936284;28;20048;-46
2023/04/09 04:15:27;;;;;;;;;;;;;;;9.65;100.00;99677.06;4936740;28;20263;-47
2023/04/09 04:17:53;;;;;;;;;;;;;;;8.81;100.00;99697.22;4936591;28;19925;-47
2023/04/09 04:20:18;;;;;;;;;;;;;;;8.37;100.00;99709.72;4935216;28;20505;-47
2023/04/09 04:22:43;;;;;;;;;;;;;;;7.10;100.00;99768.03;4944205;28;19950;-48
2023/04/09 04:25:09;;;;;;;;;;;;;;;7.10;100.00;99796.22;4935650;28;20555;-47
2023/04/09 04:27:34;;;;;;;;;;;;;;;7.45;100.00;99818.22;4934152;28;20737;-47
2023/04/09 04:30:00;;;;;;;;;;;;;;;6.62;100.00;99836.53;4935738;28;20008;-47
2023/04/09 04:32:26;;;;;;;;;;;;;;;6.83;100.00;99868.03;4936223;28;20387;-47
2023/04/09 04:34:51;;;;;;;;;;;;;;;6.56;100.00;99886.88;4933340;28;20437;-48
2023/04/09 04:37:16;;;;;;;;;;;;;;;7.15;100.00;99937.09;4932589;28;19933;-46
2023/04/09 04:39:41;;;;;;;;;;;;;;;7.03;100.00;99953.34;4934929;28;20316;-47
2023/04/09 04:42:07;;;;;;;;;;;;;;;7.11;100.00;99958.44;4936914;28;20037;-47
2023/04/09 04:44:32;;;;;;;;;;;;;;;6.99;100.00;99971.28;4939405;28;19926;-47
2023/04/09 04:46:57;;;;;;;;;;;;;;;7.26;100.00;99980.63;4934178;28;20009;-46
2023/04/09 04:49:22;;;;;;;;;;;;;;;7.59;100.00;99989.03;4935277;28;20234;-47
2023/04/09 04:51:48;;;;;;;;;;;;;;;8.03;100.00;99981.13;4934066;28;20363;-46
2023/04/09 04:54:13;;;;;;;;;;;;;;;8.07;100.00;99956.28;4936662;28;19926;-47
2023/04/09 04:56:38;;;;;;;;;;;;;;;7.53;100.00;99947.19;4935194;28;19922;-47
2023/04/09 04:59:03;;;;;;;;;;;;;;;7.45;100.00;99935.28;4935687;28;19933;-47
2023/04/09 05:01:29;;;;;;;;;;;;;;;7.96;100.00;99954.66;4935710;28;19926;-47
2023/04/09 05:03:54;;;;;;;;;;;;;;;8.30;100.00;99933.03;4933533;28;19925;-47
2023/04/09 05:06:19;;;;;;;;;;;;;;;8.03;100.00;99895.59;4937604;28;19929;-47
2023/04/09 05:08:44;;;;;;;;;;;;;;;8.04;100.00;99910.16;4939802;28;19968;-47
2023/04/09 05:11:10;;;;;;;;;;;;;;;7.53;100.00;99916.44;4934608;28;19926;-47
2023/04/09 05:13:35;;;;;;;;;;;;;;;8.24;100.00;99925.41;4934949;28;19969;-47
2023/04/09 05:16:01;;;;;;;;;;;;;;;8.47;100.00;99914.97;4934120;28;19925;-47
2023/04/09 05:18:26;;;;;;;;;;;;;;;8.33;100.00;99892.81;4934351;28;19933;-47
2023/04/09 05:20:51;;;;;;;;;;;;;;;8.15;100.00;99887.84;4935538;28;20749;-48
2023/04/09 05:23:16;;;;;;;;;;;;;;;8.23;100.00;99883.47;4935361;28;20371;-46
2023/04/09 05:25:42;;;;;;;;;;;;;;;8.32;100.00;99878.25;4931177;28;19964;-47
2023/04/09 05:28:10;;;;;;;;;;;;;;;8.38;100.00;99888.50;4933570;28;20341;-47
2023/04/09 05:30:35;;;;;;;;;;;;;;;8.22;100.00;99884.34;4934702;28;20419;-48
2023/04/09 05:33:00;;;;;;;;;;;;;;;7.88;100.00;99888.88;4935115;28;19922;-49
2023/04/09 05:35:25;;;;;;;;;;;;;;;7.99;100.00;99901.66;4932736;28;20421;-47
2023/04/09 05:37:50;;;;;;;;;;;;;;;8.25;100.00;99920.25;4935048;28;20412;-47
2023/04/09 05:40:16;;;;;;;;;;;;;;;8.50;100.00;99910.66;4934350;28;19977;-47
2023/04/09 05:42:41;;;;;;;;;;;;;;;8.31;100.00;99891.13;4935022;28;19930;-47
2023/04/09 05:45:06;;;;;;;;;;;;;;;8.94;100.00;99890.53;4935371;28;20012;-47
2023/04/09 05:47:32;;;;;;;;;;;;;;;8.21;100.00;99882.66;4938131;28;20009;-47
2023/04/09 05:49:57;;;;;;;;;;;;;;;8.52;100.00;99906.38;4938557;28;20004;-47
2023/04/09 05:52:22;;;;;;;;;;;;;;;7.93;100.00;99913.63;4938453;28;20242;-47
2023/04/09 05:54:47;;;;;;;;;;;;;;;8.92;100.00;99923.97;4938243;28;19926;-47
2023/04/09 05:57:13;;;;;;;;;;;;;;;9.04;100.00;99917.84;4936533;28;19995;-47
2023/04/09 05:59:38;;;;;;;;;;;;;;;8.87;100.00;99917.16;4938917;28;19932;-48
2023/04/09 06:02:03;;;;;;;;;;;;;;;9.12;100.00;99904.91;4937788;28;20045;-48
2023/04/09 06:04:29;;;;;;;;;;;;;;;9.20;100.00;99909.09;4935932;28;19928;-48
2023/04/09 06:06:55;;;;;;;;;;;;;;;8.88;100.00;99922.28;4938803;28;19918;-47
2023/04/09 06:09:20;;;;;;;;;;;;;;;8.56;100.00;99945.72;4938839;28;19926;-47
2023/04/09 06:11:45;;;;;;;;;;;;;;;9.04;100.00;99947.81;4937311;28;19988;-48
2023/04/09 06:14:15;;;;;;;;;;;;;;;9.49;100.00;99950.72;4937381;28;19961;-48
2023/04/09 06:16:40;;;;;;;;;;;;;;;9.30;100.00;99935.53;4937327;28;20004;-48
2023/04/09 06:19:05;;;;;;;;;;;;;;;9.25;100.00;99919.31;4940233;28;20708;-48
2023/04/09 06:21:32;;;;;;;;;;;;;;;8.98;100.00;99916.16;4939764;28;20004;-47
2023/04/09 06:23:57;;;;;;;;;;;;;;;9.74;100.00;99926.41;4938191;28;19923;-49
2023/04/09 06:26:22;;;;;;;;;;;;;;;9.21;100.00;99887.66;4932182;28;19926;-48
2023/04/09 06:28:47;;;;;;;;;;;;;;;10.09;100.00;99875.28;4937259;28;19922;-47
2023/04/09 06:31:12;;;;;;;;;;;;;;;10.20;100.00;99865.69;4935730;28;19929;-47
2023/04/09 06:33:38;;;;;;;;;;;;;;;10.29;100.00;99844.97;4936286;28;19926;-47
2023/04/09 06:36:03;;;;;;;;;;;;;;;10.76;100.00;99835.50;4935882;28;19930;-48
2023/04/09 06:38:28;;;;;;;;;;;;;;;10.26;100.00;99832.09;4936611;28;19926;-48
2023/04/09 06:40:55;;;;;;;;;;;;;;;10.34;100.00;99834.59;4937109;28;19979;-47
2023/04/09 06:43:20;;;;;;;;;;;;;;;10.56;100.00;99835.03;4937109;28;20080;-46
2023/04/09 06:45:46;;;;;;;;;;;;;;;10.44;100.00;99852.38;4937077;28;20067;-46
2023/04/09 06:48:11;;;;;;;;;;;;;;;10.93;100.00;99860.09;4936118;28;19929;-47
2023/04/09 06:50:36;;;;;;;;;;;;;;;10.81;100.00;99862.03;4937701;28;19922;-46
2023/04/09 06:53:02;;;;;;;;;;;;;;;11.21;100.00;99850.91;4936377;28;19961;-47
2023/04/09 06:55:27;;;;;;;;;;;;;;;11.09;100.00;99830.56;4936365;28;19983;-47
2023/04/09 06:57:52;;;;;;;;;;;;;;;11.82;100.00;99809.16;4936058;28;20357;-47
2023/04/09 07:00:18;;;;;;;;;;;;;;;12.04;100.00;99792.28;4936016;28;19922;-47
2023/04/09 07:02:43;;;;;;;;;;;;;;;12.10;100.00;99805.03;4935381;28;20386;-47
2023/04/09 07:05:08;;;;;;;;;;;;;;;11.98;100.00;99774.38;4935751;28;19958;-47
2023/04/09 07:07:33;;;;;;;;;;;;;;;11.64;100.00;99793.22;4935005;28;20009;-47
2023/04/09 07:09:59;;;;;;;;;;;;;;;11.57;100.00;99796.84;4938045;28;20433;-48
2023/04/09 07:12:27;;;;;;;;;;;;;;;11.61;100.00;99798.47;4938852;28;21010;-47
2023/04/09 07:14:56;;;;;;;;;;;;;;;10.78;100.00;99815.69;4937714;28;19927;-47
2023/04/09 07:17:21;;;;;;;;;;;;;;;11.50;100.00;99810.75;4937075;28;19922;-48
2023/04/09 07:19:46;;;;;;;;;;;;;;;11.87;100.00;99835.69;4938554;28;20691;-45
2023/04/09 07:22:11;;;;;;;;;;;;;;;11.77;100.00;99823.88;4936086;28;20450;-47
2023/04/09 07:24:37;;;;;;;;;;;;;;;11.52;100.00;99812.41;4934983;28;19933;-47
2023/04/09 07:27:02;;;;;;;;;;;;;;;12.12;100.00;99815.31;4933612;28;19938;-47
2023/04/09 07:29:27;;;;;;;;;;;;;;;12.30;100.00;99799.34;4937029;28;19926;-47
2023/04/09 07:31:53;;;;;;;;;;;;;;;12.56;100.00;99784.88;4935815;28;19950;-48
2023/04/09 07:34:18;;;;;;;;;;;;;;;12.96;100.00;99769.09;4934983;28;20166;-47
2023/04/09 07:36:43;;;;;;;;;;;;;;;12.78;100.00;99733.44;4935565;28;19927;-47
2023/04/09 07:39:08;;;;;;;;;;;;;;;12.70;100.00;99761.25;4936469;28;19973;-47
2023/04/09 07:41:34;;;;;;;;;;;;;;;12.93;100.00;99748.53;4936948;28;20009;-49
2023/04/09 07:44:02;;;;;;;;;;;;;;;13.43;100.00;99726.31;4938369;28;19927;-47
2023/04/09 07:46:27;;;;;;;;;;;;;;;12.90;100.00;99735.66;4936405;28;19934;-47
2023/04/09 07:48:52;;;;;;;;;;;;;;;13.50;100.00;99727.81;4936010;28;19923;-47
2023/04/09 07:51:18;;;;;;;;;;;;;;;14.33;100.00;99712.06;4935262;28;19926;-48
2023/04/09 07:53:43;;;;;;;;;;;;;;;14.41;100.00;99679.78;4940949;28;19926;-48
2023/04/09 07:56:08;;;;;;;;;;;;;;;14.51;100.00;99671.69;4937890;28;19968;-47
2023/04/09 07:58:34;;;;;;;;;;;;;;;14.67;100.00;99682.34;4937659;28;19926;-46
2023/04/09 08:00:59;;;;;;;;;;;;;;;14.01;100.00;99688.97;4934669;28;19927;-47
2023/04/09 08:03:24;;;;;;;;;;;;;;;15.25;100.00;99680.88;4939340;28;19979;-47
2023/04/09 08:05:50;;;;;;;;;;;;;;;15.00;100.00;99660.28;4939262;28;19968;-48
2023/04/09 08:08:15;;;;;;;;;;;;;;;15.38;100.00;99644.06;4939229;28;20944;-47
2023/04/09 08:10:40;;;;;;;;;;;;;;;14.59;100.00;99661.88;4937511;28;19967;-46
2023/04/09 08:13:05;;;;;;;;;;;;;;;16.23;100.00;99628.31;4939873;28;21649;-41
2023/04/09 08:15:31;;;;;;;;;;;;;;;16.73;100.00;99628.56;4937499;28;20014;-41
2023/04/09 08:17:57;;;;;;;;;;;;;;;15.26;100.00;99635.06;4935325;28;21338;-41
2023/04/09 08:20:22;;;;;;;;;;;;;;;16.34;100.00;99635.63;4939116;28;20703;-42
2023/04/09 08:22:47;;;;;;;;;;;;;;;15.45;100.00;99642.91;4935020;28;19929;-41
2023/04/09 08:25:12;;;;;;;;;;;;;;;14.99;100.00;99660.34;4937494;28;19926;-41
2023/04/09 08:27:38;;;;;;;;;;;;;;;15.56;100.00;99658.88;4938058;28;20665;-41
2023/04/09 08:30:04;;;;;;;;;;;;;;;14.71;100.00;99638.09;4938815;28;20072;-42
2023/04/09 08:32:29;;;;;;;;;;;;;;;16.04;100.00;99620.50;4938432;28;19926;-41
2023/04/09 08:34:54;;;;;;;;;;;;;;;17.00;100.00;99581.38;4939063;28;20684;-41
2023/04/09 08:37:20;;;;;;;;;;;;;;;16.26;100.00;99592.66;4938029;28;19958;-41
2023/04/09 08:39:45;;;;;;;;;;;;;;;16.97;100.00;99584.13;4937868;28;20009;-41
2023/04/09 08:42:11;;;;;;;;;;;;;;;16.44;100.00;99597.88;4938315;28;19984;-41
2023/04/09 08:44:37;;;;;;;;;;;;;;;14.83;100.00;99647.16;4936496;28;19922;-41
2023/04/09 08:47:07;;;;;;;;;;;;;;;16.94;100.00;99586.84;4938566;28;19992;-41
2023/04/09 08:49:32;;;;;;;;;;;;;;;16.33;100.00;99597.53;4936557;28;19984;-41
2023/04/09 08:51:57;;;;;;;;;;;;;;;15.66;100.00;99617.78;4939869;28;19922;-41
2023/04/09 08:54:25;;;;;;;;;;;;;;;15.57;100.00;99613.00;4938209;28;19984;-41
2023/04/09 08:56:50;;;;;;;;;;;;;;;16.99;98.33;99566.69;4937883;28;19926;-41
2023/04/09 08:59:17;;;;;;;;;;;;;;;16.02;99.96;99593.75;4935769;28;19923;-41
2023/04/09 09:01:42;;;;;;;;;;;;;;;16.84;100.00;99583.03;4938154;28;19926;-41
2023/04/09 09:04:08;;;;;;;;;;;;;;;17.90;94.66;99541.22;4938186;28;19979;-41
2023/04/09 09:06:37;;;;;;;;;;;;;;;15.23;93.09;99565.09;4942733;28;19999;-41
2023/04/09 09:09:05;;;;;;;;;;;;;;;15.95;96.37;99581.94;4942538;28;19926;-41
2023/04/09 09:11:31;;;;;;;;;;;;;;;18.27;87.64;99511.38;4936384;28;19922;-41
2023/04/09 09:13:57;;;;;;;;;;;;;;;15.68;88.15;99549.28;4935837;28;20003;-41
2023/04/09 09:16:23;;;;;;;;;;;;;;;16.12;91.30;99569.03;4935673;28;19929;-41
2023/04/09 09:18:48;;;;;;;;;;;;;;;17.45;91.00;99551.34;4938589;28;19922;-41
2023/04/09 09:21:14;;;;;;;;;;;;;;;16.38;90.39;99562.63;4939046;28;19930;-41
2023/04/09 09:23:39;;;;;;;;;;;;;;;17.68;89.70;99549.31;4938335;28;20064;-41
2023/04/09 09:26:12;;;;;;;;;;;;;;;17.63;85.70;99533.06;4940021;28;19922;-41
2023/04/09 09:28:37;;;;;;;;;;;;;;;15.54;89.43;99582.81;4941384;28;19926;-42
2023/04/09 09:31:09;;;;;;;;;;;;;;;16.95;88.74;99565.16;4940961;28;19976;-41
2023/04/09 09:33:35;;;;;;;;;;;;;;;16.67;83.53;99535.25;4940595;28;19922;-41
2023/04/09 09:36:02;;;;;;;;;;;;;;;15.96;84.94;99547.25;4940510;28;19933;-42
2023/04/09 09:38:27;;;;;;;;;;;;;;;17.60;85.11;99541.03;4935524;28;20792;-42
2023/04/09 09:40:53;;;;;;;;;;;;;;;16.57;83.40;99536.59;4939501;28;19933;-42
2023/04/09 09:43:18;;;;;;;;;;;;;;;17.57;80.23;99510.78;4941640;28;20861;-42
2023/04/09 09:45:43;;;;;;;;;;;;;;;18.20;75.99;99473.56;4939179;28;20341;-42
2023/04/09 09:48:11;;;;;;;;;;;;;;;19.63;76.31;99489.50;4952305;28;19946;-42
2023/04/09 09:50:37;;;;;;;;;;;;;;;16.96;81.58;99550.38;4940090;28;19926;-42
2023/04/09 09:53:04;;;;;;;;;;;;;;;16.53;81.36;99542.84;4941006;28;20009;-42
2023/04/09 09:55:31;;;;;;;;;;;;;;;17.21;77.57;99503.13;4939135;28;20450;-42
2023/04/09 09:57:56;;;;;;;;;;;;;;;18.31;77.54;99507.66;4940353;28;19929;-42
2023/04/09 10:00:24;;;;;;;;;;;;;;;17.42;77.43;99522.84;4937328;28;19926;-42
2023/04/09 10:03:01;;;;;;;;;;;;;;;18.67;74.09;99482.22;4939257;28;19933;-42
2023/04/09 10:05:26;;;;;;;;;;;;;;;16.70;75.35;99522.09;4937352;28;19926;-41
2023/04/09 10:08:01;;;;;;;;;;;;;;;17.50;76.18;99515.47;4937937;28;20469;-42
2023/04/09 10:10:27;;;;;;;;;;;;;;;18.91;71.78;99480.81;4937910;28;19991;-42
2023/04/09 10:12:52;;;;;;;;;;;;;;;18.51;75.40;99513.53;4937738;28;19930;-41
2023/04/09 10:15:18;;;;;;;;;;;;;;;18.80;74.61;99504.09;4939882;28;19997;-42
2023/04/09 10:17:43;;;;;;;;;;;;;;;18.02;70.96;99490.19;4941110;28;19935;-42
2023/04/09 10:20:11;;;;;;;;;;;;;;;19.55;73.49;99496.16;4939163;28;20482;-41
2023/04/09 10:22:36;;;;;;;;;;;;;;;18.99;67.96;99464.69;4940346;28;19961;-41
2023/04/09 10:25:02;;;;;;;;;;;;;;;18.15;66.53;99466.00;4939146;28;20013;-41
2023/04/09 10:27:27;;;;;;;;;;;;;;;18.60;70.48;99481.72;4936366;28;19929;-41
2023/04/09 10:29:53;;;;;;;;;;;;;;;18.60;72.87;99487.75;4939642;28;20020;-41
2023/04/09 10:32:25;;;;;;;;;;;;;;;17.49;72.72;99494.72;4937322;28;20022;-41
2023/04/09 10:34:50;;;;;;;;;;;;;;;16.82;77.41;99518.06;4939137;28;19948;-41
2023/04/09 10:37:19;;;;;;;;;;;;;;;17.37;75.62;99493.59;4938983;28;19926;-41
2023/04/09 10:39:46;;;;;;;;;;;;;;;17.71;73.52;99486.63;4937951;28;20047;-41
2023/04/09 10:42:12;;;;;;;;;;;;;;;18.49;71.95;99469.28;4937614;28;19933;-41
2023/04/09 10:44:40;;;;;;;;;;;;;;;18.84;74.02;99489.06;4940112;28;19929;-41
2023/04/09 10:47:05;;;;;;;;;;;;;;;19.41;70.85;99448.22;4938491;28;19922;-41
2023/04/09 10:49:37;;;;;;;;;;;;;;;18.72;71.51;99465.34;4938903;28;19933;-41
2023/04/09 10:52:12;;;;;;;;;;;;;;;20.41;70.99;99439.31;4939611;28;19932;-40
2023/04/09 10:54:37;;;;;;;;;;;;;;;19.04;66.30;99431.31;4935784;28;19933;-41
2023/04/09 10:57:05;;;;;;;;;;;;;;;20.96;66.55;99413.88;4934448;28;19926;-42
2023/04/09 10:59:31;;;;;;;;;;;;;;;19.85;66.42;99436.78;4939325;28;19926;-41
2023/04/09 11:01:56;;;;;;;;;;;;;;;17.77;70.44;99478.47;4936180;28;19933;-41
2023/04/09 11:04:21;;;;;;;;;;;;;;;18.90;67.50;99431.31;4935973;28;19929;-41
2023/04/09 11:06:47;;;;;;;;;;;;;;;18.80;66.38;99431.84;4936649;28;19980;-41
2023/04/09 11:09:12;;;;;;;;;;;;;;;20.03;66.83;99419.09;4936672;28;20034;-41
2023/04/09 11:11:37;;;;;;;;;;;;;;;17.97;68.40;99449.59;4939778;28;19918;-41
2023/04/09 11:14:03;;;;;;;;;;;;;;;17.12;74.99;99494.03;4939247;28;19922;-40
2023/04/09 11:16:29;;;;;;;;;;;;;;;17.74;74.96;99476.03;4938923;28;20454;-41
2023/04/09 11:18:55;;;;;;;;;;;;;;;18.78;69.79;99438.09;4936690;28;19932;-40
2023/04/09 11:21:20;;;;;;;;;;;;;;;20.18;68.50;99413.81;4940151;28;20012;-40
2023/04/09 11:23:50;;;;;;;;;;;;;;;19.59;70.38;99441.03;4940176;28;19922;-41
2023/04/09 11:26:15;;;;;;;;;;;;;;;17.46;72.69;99455.84;4931683;28;19980;-41
2023/04/09 11:28:41;;;;;;;;;;;;;;;18.52;71.13;99426.53;4939494;28;20013;-41
2023/04/09 11:31:07;;;;;;;;;;;;;;;18.56;75.21;99469.78;4937792;28;20037;-41
2023/04/09 11:33:33;;;;;;;;;;;;;;;18.28;70.31;99434.00;4940126;28;19963;-41
2023/04/09 11:35:58;;;;;;;;;;;;;;;16.71;79.92;99508.16;4938062;28;19926;-41
2023/04/09 11:38:23;;;;;;;;;;;;;;;17.78;78.17;99474.94;4937230;28;19972;-41
2023/04/09 11:40:50;;;;;;;;;;;;;;;18.31;76.52;99454.69;4938998;28;19922;-41
2023/04/09 11:43:19;;;;;;;;;;;;;;;18.46;68.87;99411.25;4936299;28;20637;-41
2023/04/09 11:45:47;;;;;;;;;;;;;;;19.54;72.85;99427.38;4937527;28;19960;-41
2023/04/09 11:48:12;;;;;;;;;;;;;;;20.35;69.94;99416.16;4935631;28;19934;-41
2023/04/09 11:50:37;;;;;;;;;;;;;;;19.73;67.53;99410.59;4938613;28;20025;-41
2023/04/09 11:53:18;;;;;;;;;;;;;;;20.99;67.42;99397.09;4936738;28;20012;-41
2023/04/09 11:55:45;;;;;;;;;;;;;;;20.07;67.93;99419.75;4934102;28;19930;-41
2023/04/09 11:58:10;;;;;;;;;;;;;;;18.72;69.68;99441.84;4931428;28;19926;-41
2023/04/09 12:00:39;;;;;;;;;;;;;;;18.92;70.18;99429.44;4938143;28;19932;-41
2023/04/09 12:03:04;;;;;;;;;;;;;;;19.90;65.28;99393.84;4943098;28;20025;-41
2023/04/09 12:05:30;;;;;;;;;;;;;;;18.72;72.44;99454.91;4943476;28;20015;-41
2023/04/09 12:07:57;;;;;;;;;;;;;;;19.12;75.56;99464.81;4943601;28;19926;-41
2023/04/09 12:10:25;;;;;;;;;;;;;;;19.52;74.19;99451.94;4946852;28;19922;-41
2023/04/09 12:12:50;;;;;;;;;;;;;;;19.50;71.55;99431.16;4942801;28;19926;-41
2023/04/09 12:15:19;;;;;;;;;;;;;;;21.53;66.94;99399.47;4943600;28;21294;-41
2023/04/09 12:17:49;;;;;;;;;;;;;;;22.41;65.49;99398.38;4941317;28;19932;-41
2023/04/09 12:20:25;;;;;;;;;;;;;;;22.23;59.17;99361.22;4941824;28;20487;-41
2023/04/09 12:22:50;;;;;;;;;;;;;;;19.77;67.79;99432.97;4943550;28;19937;-41
2023/04/09 12:25:15;;;;;;;;;;;;;;;21.04;68.41;99423.81;4933768;28;19926;-41
2023/04/09 12:27:40;;;;;;;;;;;;;;;20.93;65.07;99405.38;4932413;28;19926;-41
2023/04/09 12:30:06;;;;;;;;;;;;;;;18.96;69.66;99444.00;4938617;28;20302;-41
2023/04/09 12:32:31;;;;;;;;;;;;;;;19.72;70.85;99435.03;4943523;28;20333;-41
2023/04/09 12:34:57;;;;;;;;;;;;;;;21.96;68.20;99406.00;4944113;28;20010;-41